createdAt,value
2018-02-23T00:00:32.866Z,0
2018-02-23T00:01:13.438Z,0
2018-02-23T00:01:54.101Z,0
2018-02-23T00:02:34.594Z,0
2018-02-23T00:03:15.183Z,0
2018-02-23T00:03:55.769Z,0
2018-02-23T00:04:36.347Z,0
2018-02-23T00:05:16.967Z,0
2018-02-23T00:05:57.524Z,0
2018-02-23T00:06:38.385Z,0
2018-02-23T00:07:19.890Z,0
2018-02-23T00:08:00.859Z,0
2018-02-23T00:08:42.067Z,0
2018-02-23T00:09:22.851Z,0
2018-02-23T00:10:15.855Z,0
2018-02-23T00:10:56.316Z,0
2018-02-23T00:11:36.907Z,0
2018-02-23T00:12:17.474Z,0
2018-02-23T00:12:58.063Z,0
2018-02-23T00:13:38.714Z,0
2018-02-23T00:14:19.255Z,0
2018-02-23T00:14:59.812Z,0
2018-02-23T00:15:40.386Z,0
2018-02-23T00:16:20.955Z,0
2018-02-23T00:17:01.515Z,0
2018-02-23T00:17:42.072Z,0
2018-02-23T00:18:22.648Z,0
2018-02-23T00:19:03.210Z,0
2018-02-23T00:19:43.785Z,0
2018-02-23T00:20:24.370Z,0
2018-02-23T00:21:05.084Z,0
2018-02-23T00:21:45.685Z,0
2018-02-23T00:22:26.259Z,0
2018-02-23T00:23:06.817Z,0
2018-02-23T00:23:47.349Z,0
2018-02-23T00:24:27.886Z,0
2018-02-23T00:25:08.429Z,0
2018-02-23T00:25:48.986Z,0
2018-02-23T00:26:29.574Z,0
2018-02-23T00:27:10.119Z,0
2018-02-23T00:27:50.707Z,0
2018-02-23T00:28:31.328Z,0
2018-02-23T00:29:11.887Z,0
2018-02-23T00:29:52.483Z,0
2018-02-23T00:30:33.074Z,0
2018-02-23T00:31:13.674Z,0
2018-02-23T00:31:54.266Z,0
2018-02-23T00:32:34.806Z,0
2018-02-23T00:33:15.368Z,0
2018-02-23T00:33:55.935Z,0
2018-02-23T00:34:36.465Z,0
2018-02-23T00:35:17.019Z,0
2018-02-23T00:35:57.566Z,0
2018-02-23T00:36:38.121Z,0
2018-02-23T00:37:18.672Z,0
2018-02-23T00:37:59.244Z,0
2018-02-23T00:38:39.906Z,0
2018-02-23T00:39:20.437Z,0
2018-02-23T00:40:01.015Z,0
2018-02-23T00:40:41.588Z,0
2018-02-23T00:41:22.164Z,0
2018-02-23T00:42:02.681Z,0
2018-02-23T00:42:43.262Z,0
2018-02-23T00:43:23.847Z,0
2018-02-23T00:44:04.424Z,0
2018-02-23T00:44:44.997Z,0
2018-02-23T00:45:25.604Z,0
2018-02-23T00:46:06.161Z,0
2018-02-23T00:46:46.712Z,0
2018-02-23T00:47:27.278Z,0
2018-02-23T00:48:07.837Z,0
2018-02-23T00:48:48.383Z,0
2018-02-23T00:49:28.935Z,0
2018-02-23T00:50:09.486Z,0
2018-02-23T00:50:50.057Z,0
2018-02-23T00:51:30.610Z,0
2018-02-23T00:52:11.203Z,0
2018-02-23T00:52:51.704Z,0
2018-02-23T00:53:32.245Z,0
2018-02-23T00:54:12.857Z,0
2018-02-23T00:54:53.407Z,0
2018-02-23T00:55:34.070Z,0
2018-02-23T00:56:14.507Z,0
2018-02-23T00:56:55.071Z,0
2018-02-23T00:57:35.646Z,0
2018-02-23T00:58:16.176Z,0
2018-02-23T00:58:56.748Z,0
2018-02-23T00:59:37.300Z,0
2018-02-23T01:00:17.851Z,0
2018-02-23T01:00:58.399Z,0
2018-02-23T01:01:38.970Z,0
2018-02-23T01:02:19.498Z,0
2018-02-23T01:03:00.032Z,0
2018-02-23T01:03:40.683Z,0
2018-02-23T01:04:21.233Z,0
2018-02-23T01:05:01.848Z,0
2018-02-23T01:05:42.458Z,0
2018-02-23T01:06:23.022Z,0
2018-02-23T01:07:03.502Z,0
2018-02-23T01:07:44.334Z,0
2018-02-23T01:08:24.957Z,0
2018-02-23T01:09:05.687Z,0
2018-02-23T01:09:46.506Z,0
2018-02-23T01:10:27.043Z,0
2018-02-23T01:11:07.595Z,0
2018-02-23T01:11:48.151Z,0
2018-02-23T01:12:28.751Z,0
2018-02-23T01:13:09.358Z,0
2018-02-23T01:13:49.912Z,0
2018-02-23T01:14:30.536Z,0
2018-02-23T01:15:11.150Z,0
2018-02-23T01:15:51.825Z,0
2018-02-23T01:16:32.400Z,0
2018-02-23T01:17:13.125Z,0
2018-02-23T01:17:53.924Z,0
2018-02-23T01:18:34.562Z,0
2018-02-23T01:19:15.033Z,0
2018-02-23T01:19:55.697Z,0
2018-02-23T01:20:36.211Z,0
2018-02-23T01:21:16.838Z,0
2018-02-23T01:21:57.503Z,0
2018-02-23T01:22:38.251Z,0
2018-02-23T01:23:19.071Z,0
2018-02-23T01:23:59.788Z,0
2018-02-23T01:24:40.361Z,0
2018-02-23T01:25:20.826Z,0
2018-02-23T01:26:01.391Z,0
2018-02-23T01:26:41.939Z,0
2018-02-23T01:27:22.481Z,0
2018-02-23T01:28:03.025Z,0
2018-02-23T01:28:43.579Z,0
2018-02-23T01:29:24.103Z,0
2018-02-23T01:30:04.747Z,0
2018-02-23T01:30:45.309Z,0
2018-02-23T01:31:25.877Z,0
2018-02-23T01:32:06.437Z,0
2018-02-23T01:32:47.046Z,0
2018-02-23T01:33:27.593Z,0
2018-02-23T01:34:08.133Z,0
2018-02-23T01:34:48.689Z,0
2018-02-23T01:35:29.272Z,0
2018-02-23T01:36:09.835Z,0
2018-02-23T01:36:50.392Z,0
2018-02-23T01:37:30.971Z,0
2018-02-23T01:38:11.608Z,0
2018-02-23T01:38:52.189Z,0
2018-02-23T01:39:32.748Z,0
2018-02-23T01:40:13.301Z,0
2018-02-23T01:40:53.854Z,0
2018-02-23T01:41:34.440Z,0
2018-02-23T01:42:15.000Z,0
2018-02-23T01:42:55.546Z,0
2018-02-23T01:43:36.087Z,0
2018-02-23T01:44:16.659Z,0
2018-02-23T01:44:57.213Z,0
2018-02-23T01:45:37.765Z,0
2018-02-23T01:46:18.324Z,0
2018-02-23T01:46:58.954Z,0
2018-02-23T01:47:39.563Z,0
2018-02-23T01:48:20.103Z,0
2018-02-23T01:49:00.666Z,0
2018-02-23T01:49:41.213Z,0
2018-02-23T01:50:21.815Z,0
2018-02-23T01:51:02.359Z,0
2018-02-23T01:51:42.912Z,0
2018-02-23T01:52:23.464Z,0
2018-02-23T01:53:04.033Z,0
2018-02-23T01:53:44.592Z,0
2018-02-23T01:54:25.126Z,0
2018-02-23T01:55:05.694Z,0
2018-02-23T01:55:46.239Z,0
2018-02-23T01:56:26.784Z,0
2018-02-23T01:57:07.340Z,0
2018-02-23T01:57:47.907Z,0
2018-02-23T01:58:28.545Z,0
2018-02-23T01:59:09.050Z,0
2018-02-23T01:59:49.614Z,0
2018-02-23T02:00:30.196Z,0
2018-02-23T02:01:10.756Z,0
2018-02-23T02:01:51.312Z,0
2018-02-23T02:02:31.868Z,0
2018-02-23T02:03:12.433Z,0
2018-02-23T02:03:52.977Z,0
2018-02-23T02:04:33.517Z,0
2018-02-23T02:05:14.088Z,0
2018-02-23T02:05:54.652Z,0
2018-02-23T02:06:35.257Z,0
2018-02-23T02:07:15.816Z,0
2018-02-23T02:07:56.353Z,0
2018-02-23T02:08:36.917Z,0
2018-02-23T02:09:17.478Z,0
2018-02-23T02:09:58.018Z,0
2018-02-23T02:10:38.628Z,0
2018-02-23T02:11:19.163Z,0
2018-02-23T02:11:59.741Z,0
2018-02-23T02:12:40.332Z,0
2018-02-23T02:13:20.877Z,0
2018-02-23T02:14:01.429Z,0
2018-02-23T02:14:42.001Z,0
2018-02-23T02:15:22.671Z,0
2018-02-23T02:16:03.216Z,0
2018-02-23T02:16:43.809Z,0
2018-02-23T02:17:24.379Z,0
2018-02-23T02:18:04.930Z,0
2018-02-23T02:18:45.488Z,0
2018-02-23T02:19:26.050Z,0
2018-02-23T02:20:06.591Z,0
2018-02-23T02:20:47.200Z,0
2018-02-23T02:21:27.742Z,0
2018-02-23T02:22:08.295Z,0
2018-02-23T02:22:48.856Z,0
2018-02-23T02:23:29.429Z,0
2018-02-23T02:24:09.977Z,0
2018-02-23T02:24:50.532Z,0
2018-02-23T02:25:31.081Z,0
2018-02-23T02:26:11.632Z,0
2018-02-23T02:26:52.191Z,0
2018-02-23T02:27:32.733Z,0
2018-02-23T02:28:13.293Z,0
2018-02-23T02:28:53.905Z,0
2018-02-23T02:29:34.438Z,0
2018-02-23T02:30:14.989Z,0
2018-02-23T02:30:55.545Z,0
2018-02-23T02:31:36.103Z,0
2018-02-23T02:32:16.654Z,0
2018-02-23T02:32:57.204Z,0
2018-02-23T02:33:37.779Z,0
2018-02-23T02:34:18.337Z,0
2018-02-23T02:34:58.888Z,0
2018-02-23T02:35:39.475Z,0
2018-02-23T02:36:20.023Z,0
2018-02-23T02:37:00.597Z,0
2018-02-23T02:37:41.193Z,0
2018-02-23T02:38:21.719Z,0
2018-02-23T02:39:02.300Z,0
2018-02-23T02:39:42.855Z,0
2018-02-23T02:40:23.435Z,0
2018-02-23T02:41:03.975Z,0
2018-02-23T02:41:44.529Z,0
2018-02-23T02:42:25.067Z,0
2018-02-23T02:43:05.626Z,0
2018-02-23T02:43:46.196Z,0
2018-02-23T02:44:26.744Z,0
2018-02-23T02:45:07.291Z,0
2018-02-23T02:45:47.836Z,0
2018-02-23T02:46:28.380Z,0
2018-02-23T02:47:08.929Z,0
2018-02-23T02:47:49.545Z,0
2018-02-23T02:48:30.112Z,0
2018-02-23T02:49:10.638Z,0
2018-02-23T02:49:51.228Z,0
2018-02-23T02:50:31.783Z,0
2018-02-23T02:51:12.326Z,0
2018-02-23T02:51:52.886Z,0
2018-02-23T02:52:33.430Z,0
2018-02-23T02:53:14.002Z,0
2018-02-23T02:53:54.559Z,0
2018-02-23T02:54:35.107Z,0
2018-02-23T02:55:15.654Z,0
2018-02-23T02:55:56.206Z,0
2018-02-23T02:56:36.917Z,0
2018-02-23T02:57:17.344Z,0
2018-02-23T02:57:57.885Z,0
2018-02-23T02:58:38.436Z,0
2018-02-23T02:59:18.972Z,0
2018-02-23T02:59:59.497Z,0
2018-02-23T03:00:40.064Z,0
2018-02-23T03:01:20.623Z,0
2018-02-23T03:02:01.169Z,0
2018-02-23T03:02:41.714Z,0
2018-02-23T03:03:22.265Z,0
2018-02-23T03:04:02.822Z,0
2018-02-23T03:04:43.425Z,0
2018-02-23T03:05:24.012Z,0
2018-02-23T03:06:04.585Z,0
2018-02-23T03:06:45.145Z,0
2018-02-23T03:07:25.714Z,0
2018-02-23T03:08:06.281Z,0
2018-02-23T03:08:46.881Z,0
2018-02-23T03:09:27.495Z,0
2018-02-23T03:10:08.055Z,0
2018-02-23T03:10:48.593Z,0
2018-02-23T03:11:29.133Z,0
2018-02-23T03:12:09.693Z,0
2018-02-23T03:12:50.265Z,0
2018-02-23T03:13:30.817Z,0
2018-02-23T03:14:11.376Z,0
2018-02-23T03:14:51.928Z,0
2018-02-23T03:15:32.477Z,0
2018-02-23T03:16:13.035Z,0
2018-02-23T03:16:53.592Z,0
2018-02-23T03:17:34.137Z,0
2018-02-23T03:18:14.731Z,0
2018-02-23T03:18:55.264Z,0
2018-02-23T03:19:35.829Z,0
2018-02-23T03:20:16.381Z,0
2018-02-23T03:20:56.940Z,0
2018-02-23T03:21:37.486Z,0
2018-02-23T03:22:18.016Z,0
2018-02-23T03:22:58.562Z,0
2018-02-23T03:23:39.139Z,0
2018-02-23T03:24:19.678Z,0
2018-02-23T03:25:00.229Z,0
2018-02-23T03:25:40.786Z,0
2018-02-23T03:26:21.321Z,0
2018-02-23T03:27:01.874Z,0
2018-02-23T03:27:42.498Z,0
2018-02-23T03:28:23.068Z,0
2018-02-23T03:29:03.613Z,0
2018-02-23T03:29:44.172Z,0
2018-02-23T03:30:24.710Z,0
2018-02-23T03:31:05.260Z,0
2018-02-23T03:31:45.815Z,0
2018-02-23T03:32:26.415Z,0
2018-02-23T03:33:06.975Z,0
2018-02-23T03:33:47.557Z,0
2018-02-23T03:34:28.092Z,0
2018-02-23T03:35:08.660Z,0
2018-02-23T03:35:49.231Z,0
2018-02-23T03:36:29.781Z,0
2018-02-23T03:37:10.346Z,0
2018-02-23T03:37:50.897Z,0
2018-02-23T03:38:31.449Z,0
2018-02-23T03:39:12.004Z,0
2018-02-23T03:39:52.565Z,0
2018-02-23T03:40:33.106Z,0
2018-02-23T03:41:13.640Z,0
2018-02-23T03:41:54.228Z,0
2018-02-23T03:42:34.786Z,0
2018-02-23T03:43:15.339Z,0
2018-02-23T03:43:55.912Z,0
2018-02-23T03:44:36.471Z,0
2018-02-23T03:45:17.080Z,0
2018-02-23T03:45:57.606Z,0
2018-02-23T03:46:38.160Z,0
2018-02-23T03:47:18.736Z,0
2018-02-23T03:47:59.311Z,0
2018-02-23T03:48:39.857Z,0
2018-02-23T03:49:20.413Z,0
2018-02-23T03:50:00.946Z,0
2018-02-23T03:50:41.492Z,0
2018-02-23T03:51:22.044Z,0
2018-02-23T03:52:02.595Z,0
2018-02-23T03:52:43.150Z,0
2018-02-23T03:53:23.697Z,0
2018-02-23T03:54:04.272Z,0
2018-02-23T03:54:44.840Z,0
2018-02-23T03:55:25.402Z,0
2018-02-23T03:56:05.992Z,0
2018-02-23T03:56:46.538Z,0
2018-02-23T03:57:27.104Z,0
2018-02-23T03:58:07.659Z,0
2018-02-23T03:58:48.190Z,0
2018-02-23T03:59:28.737Z,0
2018-02-23T04:00:09.291Z,0
2018-02-23T04:00:49.820Z,0
2018-02-23T04:01:30.402Z,0
2018-02-23T04:02:10.940Z,0
2018-02-23T04:02:51.493Z,0
2018-02-23T04:03:32.037Z,0
2018-02-23T04:04:12.592Z,0
2018-02-23T04:04:53.171Z,0
2018-02-23T04:05:33.700Z,0
2018-02-23T04:06:14.252Z,0
2018-02-23T04:06:54.804Z,0
2018-02-23T04:07:35.372Z,0
2018-02-23T04:08:15.923Z,0
2018-02-23T04:08:56.512Z,0
2018-02-23T04:09:37.120Z,0
2018-02-23T04:10:17.685Z,0
2018-02-23T04:10:58.240Z,0
2018-02-23T04:11:38.790Z,0
2018-02-23T04:12:19.345Z,0
2018-02-23T04:12:59.885Z,0
2018-02-23T04:13:40.497Z,0
2018-02-23T04:14:21.065Z,0
2018-02-23T04:15:01.604Z,0
2018-02-23T04:15:42.277Z,0
2018-02-23T04:16:22.814Z,0
2018-02-23T04:17:03.362Z,0
2018-02-23T04:17:43.904Z,0
2018-02-23T04:18:24.453Z,0
2018-02-23T04:19:04.996Z,0
2018-02-23T04:19:45.560Z,0
2018-02-23T04:20:26.107Z,0
2018-02-23T04:21:06.699Z,0
2018-02-23T04:21:47.211Z,0
2018-02-23T04:22:27.764Z,0
2018-02-23T04:23:08.316Z,0
2018-02-23T04:23:48.850Z,0
2018-02-23T04:24:29.421Z,0
2018-02-23T04:25:09.983Z,0
2018-02-23T04:25:50.508Z,0
2018-02-23T04:26:31.064Z,0
2018-02-23T04:27:11.616Z,0
2018-02-23T04:27:52.169Z,0
2018-02-23T04:28:32.753Z,0
2018-02-23T04:29:13.389Z,0
2018-02-23T04:29:53.889Z,0
2018-02-23T04:30:34.467Z,0
2018-02-23T04:31:15.031Z,0
2018-02-23T04:31:55.640Z,0
2018-02-23T04:32:36.193Z,0
2018-02-23T04:33:16.742Z,0
2018-02-23T04:33:57.312Z,0
2018-02-23T04:34:37.875Z,0
2018-02-23T04:35:18.423Z,0
2018-02-23T04:35:58.972Z,0
2018-02-23T04:36:39.546Z,0
2018-02-23T04:37:20.099Z,0
2018-02-23T04:38:00.703Z,0
2018-02-23T04:38:41.256Z,0
2018-02-23T04:39:21.834Z,0
2018-02-23T04:40:02.373Z,0
2018-02-23T04:40:42.911Z,0
2018-02-23T04:41:23.456Z,0
2018-02-23T04:42:04.011Z,0
2018-02-23T04:42:44.562Z,0
2018-02-23T04:43:25.120Z,0
2018-02-23T04:44:05.657Z,0
2018-02-23T04:44:46.209Z,0
2018-02-23T04:45:26.764Z,0
2018-02-23T04:46:07.342Z,0
2018-02-23T04:46:47.887Z,0
2018-02-23T04:47:28.431Z,0
2018-02-23T04:48:09.031Z,0
2018-02-23T04:48:49.539Z,0
2018-02-23T04:49:30.087Z,0
2018-02-23T04:50:10.637Z,0
2018-02-23T04:50:51.175Z,0
2018-02-23T04:51:31.758Z,0
2018-02-23T04:52:12.362Z,0
2018-02-23T04:52:52.927Z,0
2018-02-23T04:53:33.465Z,0
2018-02-23T04:54:14.007Z,0
2018-02-23T04:54:54.556Z,0
2018-02-23T04:55:35.116Z,0
2018-02-23T04:56:15.689Z,0
2018-02-23T04:56:56.244Z,0
2018-02-23T04:57:36.815Z,0
2018-02-23T04:58:17.339Z,0
2018-02-23T04:58:57.884Z,0
2018-02-23T04:59:38.433Z,0
2018-02-23T05:00:19.004Z,0
2018-02-23T05:00:59.543Z,0
2018-02-23T05:01:40.093Z,0
2018-02-23T05:02:20.644Z,0
2018-02-23T05:03:01.201Z,0
2018-02-23T05:03:41.757Z,0
2018-02-23T05:04:22.332Z,0
2018-02-23T05:05:02.892Z,0
2018-02-23T05:05:43.456Z,0
2018-02-23T05:06:24.041Z,0
2018-02-23T05:07:04.591Z,0
2018-02-23T05:07:45.148Z,0
2018-02-23T05:08:25.692Z,0
2018-02-23T05:09:06.231Z,0
2018-02-23T05:09:46.801Z,0
2018-02-23T05:10:27.375Z,0
2018-02-23T05:11:07.911Z,0
2018-02-23T05:11:48.478Z,0
2018-02-23T05:12:29.012Z,0
2018-02-23T05:13:09.582Z,0
2018-02-23T05:13:50.135Z,0
2018-02-23T05:14:30.672Z,0
2018-02-23T05:15:11.230Z,0
2018-02-23T05:15:51.816Z,0
2018-02-23T05:16:32.430Z,0
2018-02-23T05:17:12.970Z,0
2018-02-23T05:17:53.519Z,0
2018-02-23T05:18:34.129Z,0
2018-02-23T05:19:14.668Z,0
2018-02-23T05:19:55.224Z,0
2018-02-23T05:20:35.784Z,0
2018-02-23T05:21:16.361Z,0
2018-02-23T05:21:56.928Z,0
2018-02-23T05:22:37.469Z,0
2018-02-23T05:23:18.010Z,0
2018-02-23T05:23:58.576Z,0
2018-02-23T05:24:39.127Z,0
2018-02-23T05:25:19.688Z,0
2018-02-23T05:26:00.281Z,0
2018-02-23T05:26:40.815Z,0
2018-02-23T05:27:21.365Z,0
2018-02-23T05:28:02.027Z,0
2018-02-23T05:28:42.590Z,0
2018-02-23T05:29:23.138Z,0
2018-02-23T05:30:03.867Z,0
2018-02-23T05:30:44.417Z,0
2018-02-23T05:31:24.968Z,0
2018-02-23T05:32:05.524Z,0
2018-02-23T05:32:46.146Z,0
2018-02-23T05:33:26.701Z,0
2018-02-23T05:34:07.254Z,0
2018-02-23T05:34:47.855Z,0
2018-02-23T05:35:28.393Z,0
2018-02-23T05:36:08.926Z,0
2018-02-23T05:36:49.479Z,0
2018-02-23T05:37:30.033Z,0
2018-02-23T05:38:10.605Z,0
2018-02-23T05:38:51.148Z,0
2018-02-23T05:39:31.704Z,0
2018-02-23T05:40:12.268Z,0
2018-02-23T05:40:52.885Z,0
2018-02-23T05:41:33.450Z,0
2018-02-23T05:42:13.997Z,0
2018-02-23T05:42:54.533Z,0
2018-02-23T05:43:35.073Z,0
2018-02-23T05:44:15.623Z,0
2018-02-23T05:44:56.177Z,0
2018-02-23T05:45:36.750Z,0
2018-02-23T05:46:17.310Z,0
2018-02-23T05:46:57.852Z,0
2018-02-23T05:47:38.411Z,0
2018-02-23T05:48:18.962Z,0
2018-02-23T05:48:59.514Z,0
2018-02-23T05:49:40.066Z,0
2018-02-23T05:50:20.701Z,0
2018-02-23T05:51:01.244Z,0
2018-02-23T05:51:41.793Z,0
2018-02-23T05:52:22.343Z,0
2018-02-23T05:53:02.901Z,0
2018-02-23T05:53:43.478Z,0
2018-02-23T05:54:24.023Z,0
2018-02-23T05:55:04.677Z,0
2018-02-23T05:55:45.223Z,0
2018-02-23T05:56:25.793Z,0
2018-02-23T05:57:06.333Z,0
2018-02-23T05:57:46.881Z,0
2018-02-23T05:58:27.440Z,0
2018-02-23T05:59:07.981Z,0
2018-02-23T05:59:48.519Z,0
2018-02-23T06:00:29.092Z,0
2018-02-23T06:01:09.641Z,0
2018-02-23T06:01:50.182Z,0
2018-02-23T06:02:30.738Z,0
2018-02-23T06:03:11.302Z,0
2018-02-23T06:03:51.853Z,0
2018-02-23T06:04:32.424Z,0
2018-02-23T06:05:13.012Z,5
2018-02-23T06:05:53.541Z,5
2018-02-23T06:06:34.096Z,5
2018-02-23T06:07:14.651Z,5
2018-02-23T06:07:55.225Z,5
2018-02-23T06:08:35.771Z,5
2018-02-23T06:09:16.331Z,5
2018-02-23T06:09:56.891Z,5
2018-02-23T06:10:37.433Z,5
2018-02-23T06:11:17.979Z,5
2018-02-23T06:11:58.535Z,5
2018-02-23T06:12:39.100Z,5
2018-02-23T06:13:19.636Z,5
2018-02-23T06:14:00.183Z,10
2018-02-23T06:14:40.741Z,10
2018-02-23T06:15:21.301Z,10
2018-02-23T06:16:01.854Z,10
2018-02-23T06:16:42.404Z,10
2018-02-23T06:17:22.963Z,10
2018-02-23T06:18:03.503Z,10
2018-02-23T06:18:44.053Z,10
2018-02-23T06:19:24.624Z,10
2018-02-23T06:20:05.904Z,15
2018-02-23T06:20:45.916Z,15
2018-02-23T06:21:26.683Z,15
2018-02-23T06:22:07.239Z,15
2018-02-23T06:22:47.784Z,15
2018-02-23T06:23:28.323Z,15
2018-02-23T06:24:08.977Z,15
2018-02-23T06:24:49.799Z,15
2018-02-23T06:25:30.294Z,20
2018-02-23T06:26:10.880Z,20
2018-02-23T06:26:51.457Z,20
2018-02-23T06:27:31.998Z,20
2018-02-23T06:28:12.559Z,20
2018-02-23T06:28:53.123Z,20
2018-02-23T06:29:33.663Z,20
2018-02-23T06:30:14.204Z,25
2018-02-23T06:30:54.791Z,25
2018-02-23T06:31:35.357Z,25
2018-02-23T06:32:15.942Z,25
2018-02-23T06:32:56.561Z,25
2018-02-23T06:33:37.092Z,25
2018-02-23T06:34:17.659Z,25
2018-02-23T06:34:58.188Z,25
2018-02-23T06:35:38.745Z,30
2018-02-23T06:36:19.314Z,30
2018-02-23T06:36:59.861Z,30
2018-02-23T06:37:40.429Z,30
2018-02-23T06:38:21.032Z,30
2018-02-23T06:39:01.610Z,30
2018-02-23T06:39:42.448Z,35
2018-02-23T06:40:23.120Z,35
2018-02-23T06:41:03.671Z,35
2018-02-23T06:41:44.238Z,35
2018-02-23T06:42:24.801Z,35
2018-02-23T06:43:05.344Z,35
2018-02-23T06:43:45.903Z,35
2018-02-23T06:44:26.476Z,40
2018-02-23T06:45:06.997Z,40
2018-02-23T06:45:47.576Z,40
2018-02-23T06:46:28.123Z,40
2018-02-23T06:47:08.679Z,40
2018-02-23T06:47:49.215Z,40
2018-02-23T06:48:29.760Z,40
2018-02-23T06:49:10.326Z,45
2018-02-23T06:49:50.912Z,45
2018-02-23T06:50:31.461Z,45
2018-02-23T06:51:12.053Z,45
2018-02-23T06:51:52.576Z,45
2018-02-23T06:52:33.137Z,50
2018-02-23T06:53:13.684Z,50
2018-02-23T06:53:54.276Z,50
2018-02-23T06:54:34.827Z,50
2018-02-23T06:55:15.424Z,50
2018-02-23T06:55:55.984Z,50
2018-02-23T06:56:36.602Z,50
2018-02-23T06:57:17.176Z,55
2018-02-23T06:57:57.732Z,55
2018-02-23T06:58:38.286Z,55
2018-02-23T06:59:18.872Z,55
2018-02-23T06:59:59.423Z,55
2018-02-23T07:00:39.996Z,60
2018-02-23T07:01:20.533Z,60
2018-02-23T07:02:01.114Z,60
2018-02-23T07:02:41.683Z,60
2018-02-23T07:03:22.233Z,65
2018-02-23T07:04:02.899Z,60
2018-02-23T07:04:43.416Z,65
2018-02-23T07:05:23.942Z,65
2018-02-23T07:06:04.498Z,65
2018-02-23T07:06:45.068Z,65
2018-02-23T07:07:25.650Z,65
2018-02-23T07:08:06.191Z,70
2018-02-23T07:08:46.743Z,70
2018-02-23T07:09:27.450Z,70
2018-02-23T07:10:08.006Z,70
2018-02-23T07:10:48.573Z,70
2018-02-23T07:11:29.098Z,75
2018-02-23T07:12:09.701Z,75
2018-02-23T07:12:50.253Z,75
2018-02-23T07:13:30.802Z,75
2018-02-23T07:14:11.389Z,75
2018-02-23T07:14:51.968Z,80
2018-02-23T07:15:32.541Z,80
2018-02-23T07:16:13.323Z,80
2018-02-23T07:16:54.744Z,80
2018-02-23T07:17:35.290Z,80
2018-02-23T07:18:16.591Z,80
2018-02-23T07:18:57.187Z,80
2018-02-23T07:19:37.730Z,80
2018-02-23T07:20:18.264Z,85
2018-02-23T07:20:58.840Z,85
2018-02-23T07:21:39.413Z,85
2018-02-23T07:22:20.002Z,90
2018-02-23T07:23:00.488Z,90
2018-02-23T07:23:41.067Z,90
2018-02-23T07:24:21.618Z,90
2018-02-23T07:25:02.165Z,90
2018-02-23T07:25:42.740Z,90
2018-02-23T07:26:23.276Z,95
2018-02-23T07:27:03.833Z,95
2018-02-23T07:27:44.376Z,95
2018-02-23T07:28:24.957Z,95
2018-02-23T07:29:05.491Z,95
2018-02-23T07:29:46.044Z,95
2018-02-23T07:30:26.603Z,100
2018-02-23T07:31:07.171Z,100
2018-02-23T07:31:47.755Z,100
2018-02-23T07:32:28.276Z,100
2018-02-23T07:33:08.809Z,105
2018-02-23T07:33:49.363Z,105
2018-02-23T07:34:29.912Z,105
2018-02-23T07:35:10.453Z,105
2018-02-23T07:35:51.047Z,105
2018-02-23T07:36:31.613Z,105
2018-02-23T07:37:12.166Z,105
2018-02-23T07:37:52.746Z,105
2018-02-23T07:38:33.309Z,105
2018-02-23T07:39:13.862Z,110
2018-02-23T07:39:54.430Z,110
2018-02-23T07:40:34.998Z,110
2018-02-23T07:41:15.539Z,110
2018-02-23T07:41:56.107Z,110
2018-02-23T07:42:36.664Z,110
2018-02-23T07:43:17.328Z,115
2018-02-23T07:43:57.886Z,115
2018-02-23T07:44:40.197Z,115
2018-02-23T07:45:20.772Z,115
2018-02-23T07:46:01.335Z,115
2018-02-23T07:46:41.956Z,115
2018-02-23T07:47:22.538Z,115
2018-02-23T07:48:03.075Z,120
2018-02-23T07:48:43.633Z,120
2018-02-23T07:49:24.175Z,120
2018-02-23T07:50:04.742Z,120
2018-02-23T07:50:45.289Z,115
2018-02-23T07:51:26.842Z,125
2018-02-23T07:52:07.393Z,125
2018-02-23T07:52:48.066Z,125
2018-02-23T07:53:28.615Z,125
2018-02-23T07:54:09.168Z,125
2018-02-23T07:54:49.724Z,125
2018-02-23T07:55:30.275Z,130
2018-02-23T07:56:10.871Z,130
2018-02-23T07:56:51.470Z,135
2018-02-23T07:57:32.185Z,135
2018-02-23T07:58:12.764Z,135
2018-02-23T07:58:54.157Z,135
2018-02-23T07:59:35.989Z,135
2018-02-23T08:00:15.977Z,130
2018-02-23T08:00:56.517Z,135
2018-02-23T08:01:37.063Z,135
2018-02-23T08:02:17.624Z,140
2018-02-23T08:02:58.172Z,150
2018-02-23T08:03:39.082Z,160
2018-02-23T08:04:19.623Z,165
2018-02-23T08:05:00.221Z,185
2018-02-23T08:05:40.860Z,220
2018-02-23T08:06:21.450Z,255
2018-02-23T08:07:02.665Z,285
2018-02-23T08:07:43.234Z,320
2018-02-23T08:08:23.802Z,365
2018-02-23T08:09:04.372Z,440
2018-02-23T08:09:44.918Z,490
2018-02-23T08:10:25.636Z,540
2018-02-23T08:11:06.218Z,600
2018-02-23T08:11:46.770Z,660
2018-02-23T08:12:27.631Z,885
2018-02-23T08:13:08.223Z,930
2018-02-23T08:13:48.792Z,970
2018-02-23T08:14:29.332Z,1065
2018-02-23T08:15:09.895Z,1045
2018-02-23T08:15:50.648Z,1025
2018-02-23T08:16:31.193Z,1015
2018-02-23T08:17:11.737Z,1005
2018-02-23T08:17:52.309Z,1030
2018-02-23T08:18:32.885Z,1040
2018-02-23T08:19:13.480Z,1040
2018-02-23T08:19:54.000Z,980
2018-02-23T08:20:34.567Z,950
2018-02-23T08:21:15.134Z,960
2018-02-23T08:21:55.701Z,930
2018-02-23T08:22:36.357Z,840
2018-02-23T08:23:16.940Z,900
2018-02-23T08:23:58.394Z,915
2018-02-23T08:24:39.000Z,960
2018-02-23T08:25:19.558Z,950
2018-02-23T08:26:00.101Z,825
2018-02-23T08:26:40.664Z,915
2018-02-23T08:27:21.234Z,930
2018-02-23T08:28:01.814Z,970
2018-02-23T08:28:42.365Z,995
2018-02-23T08:29:22.952Z,970
2018-02-23T08:30:03.506Z,995
2018-02-23T08:30:44.084Z,1035
2018-02-23T08:31:24.600Z,1040
2018-02-23T08:32:05.171Z,1035
2018-02-23T08:32:45.726Z,985
2018-02-23T08:33:26.280Z,1015
2018-02-23T08:34:06.846Z,1045
2018-02-23T08:34:47.466Z,1010
2018-02-23T08:35:28.077Z,1015
2018-02-23T08:36:08.607Z,1040
2018-02-23T08:36:49.214Z,1080
2018-02-23T08:37:29.785Z,1025
2018-02-23T08:38:10.335Z,990
2018-02-23T08:38:50.953Z,1015
2018-02-23T08:39:31.547Z,1040
2018-02-23T08:40:12.197Z,1015
2018-02-23T08:40:52.819Z,1015
2018-02-23T08:41:33.431Z,1000
2018-02-23T08:42:14.087Z,1020
2018-02-23T08:42:54.663Z,1055
2018-02-23T08:43:35.612Z,1095
2018-02-23T08:44:16.163Z,1060
2018-02-23T08:44:56.820Z,1040
2018-02-23T08:45:37.451Z,1070
2018-02-23T08:46:18.032Z,1110
2018-02-23T08:46:58.585Z,1105
2018-02-23T08:47:39.158Z,1090
2018-02-23T08:48:19.982Z,1090
2018-02-23T08:49:01.861Z,1065
2018-02-23T08:49:42.141Z,990
2018-02-23T08:50:22.739Z,955
2018-02-23T08:51:03.426Z,1005
2018-02-23T08:51:43.992Z,1045
2018-02-23T08:52:24.562Z,1045
2018-02-23T08:53:05.201Z,985
2018-02-23T08:53:45.764Z,960
2018-02-23T08:54:26.322Z,975
2018-02-23T08:55:07.271Z,995
2018-02-23T08:55:47.940Z,1035
2018-02-23T08:56:28.607Z,1080
2018-02-23T08:57:09.622Z,1080
2018-02-23T08:57:50.291Z,1075
2018-02-23T08:58:31.259Z,1065
2018-02-23T08:59:11.877Z,1080
2018-02-23T08:59:52.455Z,1105
2018-02-23T09:00:33.210Z,1080
2018-02-23T09:01:14.197Z,1035
2018-02-23T09:01:54.891Z,1060
2018-02-23T09:02:36.992Z,1040
2018-02-23T09:03:18.171Z,990
2018-02-23T09:03:58.741Z,800
2018-02-23T09:04:39.302Z,645
2018-02-23T09:05:19.863Z,480
2018-02-23T09:06:00.464Z,400
2018-02-23T09:06:41.014Z,385
2018-02-23T09:07:21.575Z,370
2018-02-23T09:08:02.146Z,385
2018-02-23T09:08:42.696Z,370
2018-02-23T09:09:23.284Z,350
2018-02-23T09:10:03.893Z,335
2018-02-23T09:10:44.462Z,180
2018-02-23T09:11:25.017Z,195
2018-02-23T09:12:05.585Z,325
2018-02-23T09:12:46.154Z,335
2018-02-23T09:13:26.751Z,320
2018-02-23T09:14:07.321Z,310
2018-02-23T09:14:47.870Z,320
2018-02-23T09:15:29.048Z,315
2018-02-23T09:16:09.813Z,285
2018-02-23T09:16:50.382Z,290
2018-02-23T09:17:30.949Z,285
2018-02-23T09:18:11.528Z,230
2018-02-23T09:18:52.092Z,240
2018-02-23T09:19:32.646Z,265
2018-02-23T09:20:13.230Z,280
2018-02-23T09:20:53.761Z,265
2018-02-23T09:21:34.345Z,265
2018-02-23T09:22:14.883Z,275
2018-02-23T09:22:55.434Z,265
2018-02-23T09:23:36.020Z,265
2018-02-23T09:24:17.675Z,275
2018-02-23T09:24:58.736Z,265
2018-02-23T09:25:39.621Z,255
2018-02-23T09:26:20.170Z,180
2018-02-23T09:27:00.737Z,180
2018-02-23T09:27:41.419Z,260
2018-02-23T09:28:22.170Z,255
2018-02-23T09:29:02.720Z,210
2018-02-23T09:29:43.277Z,230
2018-02-23T09:30:23.840Z,230
2018-02-23T09:31:04.407Z,225
2018-02-23T09:31:44.990Z,215
2018-02-23T09:32:25.551Z,205
2018-02-23T09:33:06.094Z,215
2018-02-23T09:33:46.656Z,210
2018-02-23T09:34:27.208Z,210
2018-02-23T09:35:07.760Z,210
2018-02-23T09:35:48.387Z,205
2018-02-23T09:36:28.922Z,195
2018-02-23T09:37:09.697Z,200
2018-02-23T09:37:50.316Z,190
2018-02-23T09:38:30.868Z,190
2018-02-23T09:39:11.418Z,190
2018-02-23T09:39:51.953Z,185
2018-02-23T09:40:32.528Z,180
2018-02-23T09:41:13.083Z,175
2018-02-23T09:41:53.638Z,175
2018-02-23T09:42:34.209Z,175
2018-02-23T09:43:14.784Z,175
2018-02-23T09:43:55.364Z,175
2018-02-23T09:44:35.934Z,170
2018-02-23T09:45:16.565Z,170
2018-02-23T09:45:57.204Z,165
2018-02-23T09:46:37.765Z,165